sensor_id;sensor_type;location;lat;lon;timestamp;temperature;humidity
33476;DHT22;19814;48.224;11.422;2023-12-22T00:00:10;6.00;99.90
33476;DHT22;19814;48.224;11.422;2023-12-22T00:02:35;6.00;99.90
33476;DHT22;19814;48.224;11.422;2023-12-22T00:05:01;5.90;99.90
33476;DHT22;19814;48.224;11.422;2023-12-22T00:07:26;5.30;99.90
33476;DHT22;19814;48.224;11.422;2023-12-22T00:09:52;4.00;99.90
33476;DHT22;19814;48.224;11.422;2023-12-22T00:12:17;3.00;99.90
33476;DHT22;19814;48.224;11.422;2023-12-22T00:14:42;2.50;99.90
33476;DHT22;19814;48.224;11.422;2023-12-22T00:17:08;2.20;99.90
33476;DHT22;19814;48.224;11.422;2023-12-22T00:19:33;2.20;99.90
33476;DHT22;19814;48.224;11.422;2023-12-22T00:21:59;2.20;99.90
33476;DHT22;19814;48.224;11.422;2023-12-22T00:24:24;2.20;99.90
33476;DHT22;19814;48.224;11.422;2023-12-22T00:26:50;2.20;99.90
33476;DHT22;19814;48.224;11.422;2023-12-22T00:29:15;2.30;99.90
33476;DHT22;19814;48.224;11.422;2023-12-22T00:31:41;2.40;99.90
33476;DHT22;19814;48.224;11.422;2023-12-22T00:34:06;2.50;99.90
33476;DHT22;19814;48.224;11.422;2023-12-22T00:36:32;2.50;99.90
33476;DHT22;19814;48.224;11.422;2023-12-22T00:38:57;2.60;99.90
33476;DHT22;19814;48.224;11.422;2023-12-22T00:41:22;2.60;99.90
33476;DHT22;19814;48.224;11.422;2023-12-22T00:43:48;2.70;99.90
33476;DHT22;19814;48.224;11.422;2023-12-22T00:46:13;2.70;99.90
33476;DHT22;19814;48.224;11.422;2023-12-22T00:48:39;2.70;99.90
33476;DHT22;19814;48.224;11.422;2023-12-22T00:51:05;2.80;99.90
33476;DHT22;19814;48.224;11.422;2023-12-22T00:53:31;2.80;99.90
33476;DHT22;19814;48.224;11.422;2023-12-22T00:55:56;2.90;99.90
33476;DHT22;19814;48.224;11.422;2023-12-22T00:58:21;3.00;99.90
33476;DHT22;19814;48.224;11.422;2023-12-22T01:00:47;3.00;99.90
33476;DHT22;19814;48.224;11.422;2023-12-22T01:03:12;3.00;99.90
33476;DHT22;19814;48.224;11.422;2023-12-22T01:05:38;3.10;99.90
33476;DHT22;19814;48.224;11.422;2023-12-22T01:08:03;3.10;99.90
33476;DHT22;19814;48.224;11.422;2023-12-22T01:10:29;3.20;99.90
33476;DHT22;19814;48.224;11.422;2023-12-22T01:12:54;3.20;99.90
33476;DHT22;19814;48.224;11.422;2023-12-22T01:15:20;3.20;99.90
33476;DHT22;19814;48.224;11.422;2023-12-22T01:17:45;3.20;99.90
33476;DHT22;19814;48.224;11.422;2023-12-22T01:20:11;3.20;99.90
33476;DHT22;19814;48.224;11.422;2023-12-22T01:22:36;3.20;99.90
33476;DHT22;19814;48.224;11.422;2023-12-22T01:25:04;3.20;99.90
33476;DHT22;19814;48.224;11.422;2023-12-22T01:27:30;3.20;99.90
33476;DHT22;19814;48.224;11.422;2023-12-22T01:29:56;3.10;99.90
33476;DHT22;19814;48.224;11.422;2023-12-22T01:32:21;3.10;99.90
33476;DHT22;19814;48.224;11.422;2023-12-22T01:34:47;3.10;99.90
33476;DHT22;19814;48.224;11.422;2023-12-22T01:37:12;3.10;99.90
33476;DHT22;19814;48.224;11.422;2023-12-22T01:39:38;3.10;99.90
33476;DHT22;19814;48.224;11.422;2023-12-22T01:42:03;3.00;99.90
33476;DHT22;19814;48.224;11.422;2023-12-22T01:44:29;3.00;99.90
33476;DHT22;19814;48.224;11.422;2023-12-22T01:46:54;2.90;99.90
33476;DHT22;19814;48.224;11.422;2023-12-22T01:49:20;2.80;99.90
33476;DHT22;19814;48.224;11.422;2023-12-22T01:51:46;2.70;99.90
33476;DHT22;19814;48.224;11.422;2023-12-22T01:54:12;2.70;99.90
33476;DHT22;19814;48.224;11.422;2023-12-22T01:56:39;2.70;99.90
33476;DHT22;19814;48.224;11.422;2023-12-22T01:59:04;2.70;99.90
33476;DHT22;19814;48.224;11.422;2023-12-22T02:01:29;2.70;99.90
33476;DHT22;19814;48.224;11.422;2023-12-22T02:03:56;2.70;99.90
33476;DHT22;19814;48.224;11.422;2023-12-22T02:06:23;2.60;99.90
33476;DHT22;19814;48.224;11.422;2023-12-22T02:08:49;2.60;99.90
33476;DHT22;19814;48.224;11.422;2023-12-22T02:11:15;2.60;99.90
33476;DHT22;19814;48.224;11.422;2023-12-22T02:13:41;2.50;99.90
33476;DHT22;19814;48.224;11.422;2023-12-22T02:16:10;2.50;99.90
33476;DHT22;19814;48.224;11.422;2023-12-22T02:18:39;2.40;99.90
33476;DHT22;19814;48.224;11.422;2023-12-22T02:21:04;2.20;99.90
33476;DHT22;19814;48.224;11.422;2023-12-22T02:23:30;2.10;99.90
33476;DHT22;19814;48.224;11.422;2023-12-22T02:25:58;2.20;99.90
33476;DHT22;19814;48.224;11.422;2023-12-22T02:28:28;2.20;99.90
33476;DHT22;19814;48.224;11.422;2023-12-22T02:30:56;2.20;99.90
33476;DHT22;19814;48.224;11.422;2023-12-22T02:33:22;2.30;99.90
33476;DHT22;19814;48.224;11.422;2023-12-22T02:35:49;2.30;99.90
33476;DHT22;19814;48.224;11.422;2023-12-22T02:38:16;2.30;99.90
33476;DHT22;19814;48.224;11.422;2023-12-22T02:40:41;2.40;99.90
33476;DHT22;19814;48.224;11.422;2023-12-22T02:43:07;2.40;99.90
33476;DHT22;19814;48.224;11.422;2023-12-22T02:45:33;2.40;99.90
33476;DHT22;19814;48.224;11.422;2023-12-22T02:47:59;2.40;99.90
33476;DHT22;19814;48.224;11.422;2023-12-22T02:50:25;2.50;99.90
33476;DHT22;19814;48.224;11.422;2023-12-22T02:52:50;2.60;99.90
33476;DHT22;19814;48.224;11.422;2023-12-22T02:55:16;2.60;99.90
33476;DHT22;19814;48.224;11.422;2023-12-22T02:57:41;2.60;99.90
33476;DHT22;19814;48.224;11.422;2023-12-22T03:00:07;2.70;99.90
33476;DHT22;19814;48.224;11.422;2023-12-22T03:02:33;2.70;99.90
33476;DHT22;19814;48.224;11.422;2023-12-22T03:04:58;2.70;99.90
33476;DHT22;19814;48.224;11.422;2023-12-22T03:07:23;2.70;99.90
33476;DHT22;19814;48.224;11.422;2023-12-22T03:09:49;2.70;99.90
33476;DHT22;19814;48.224;11.422;2023-12-22T03:12:14;2.70;99.90
33476;DHT22;19814;48.224;11.422;2023-12-22T03:14:40;2.70;99.90
33476;DHT22;19814;48.224;11.422;2023-12-22T03:17:05;2.80;99.90
33476;DHT22;19814;48.224;11.422;2023-12-22T03:19:32;2.80;99.90
33476;DHT22;19814;48.224;11.422;2023-12-22T03:21:57;2.80;99.90
33476;DHT22;19814;48.224;11.422;2023-12-22T03:24:23;2.90;99.90
33476;DHT22;19814;48.224;11.422;2023-12-22T03:26:49;3.00;99.90
33476;DHT22;19814;48.224;11.422;2023-12-22T03:29:14;3.00;99.90
33476;DHT22;19814;48.224;11.422;2023-12-22T03:31:40;3.00;99.90
33476;DHT22;19814;48.224;11.422;2023-12-22T03:34:05;3.00;99.90
33476;DHT22;19814;48.224;11.422;2023-12-22T03:36:31;3.00;99.90
33476;DHT22;19814;48.224;11.422;2023-12-22T03:38:57;3.00;99.90
33476;DHT22;19814;48.224;11.422;2023-12-22T03:41:22;3.00;99.90
33476;DHT22;19814;48.224;11.422;2023-12-22T03:43:47;3.10;99.90
33476;DHT22;19814;48.224;11.422;2023-12-22T03:46:13;3.10;99.90
33476;DHT22;19814;48.224;11.422;2023-12-22T03:48:38;3.10;99.90
33476;DHT22;19814;48.224;11.422;2023-12-22T03:51:04;3.10;99.90
33476;DHT22;19814;48.224;11.422;2023-12-22T03:53:29;3.10;99.90
33476;DHT22;19814;48.224;11.422;2023-12-22T03:55:55;3.10;99.90
33476;DHT22;19814;48.224;11.422;2023-12-22T03:58:20;3.20;99.90
33476;DHT22;19814;48.224;11.422;2023-12-22T04:00:46;3.40;99.90
33476;DHT22;19814;48.224;11.422;2023-12-22T04:03:11;3.50;99.90
33476;DHT22;19814;48.224;11.422;2023-12-22T04:05:37;3.50;99.90
33476;DHT22;19814;48.224;11.422;2023-12-22T04:08:02;3.70;99.90
33476;DHT22;19814;48.224;11.422;2023-12-22T04:10:28;3.90;99.90
33476;DHT22;19814;48.224;11.422;2023-12-22T04:12:53;4.10;99.90
33476;DHT22;19814;48.224;11.422;2023-12-22T04:15:19;4.30;99.90
33476;DHT22;19814;48.224;11.422;2023-12-22T04:17:44;4.40;99.90
33476;DHT22;19814;48.224;11.422;2023-12-22T04:20:10;4.50;99.90
33476;DHT22;19814;48.224;11.422;2023-12-22T04:22:35;4.60;99.90
33476;DHT22;19814;48.224;11.422;2023-12-22T04:25:01;4.70;99.90
33476;DHT22;19814;48.224;11.422;2023-12-22T04:27:26;4.70;99.90
33476;DHT22;19814;48.224;11.422;2023-12-22T04:29:52;4.70;99.90
33476;DHT22;19814;48.224;11.422;2023-12-22T04:32:17;4.70;99.90
33476;DHT22;19814;48.224;11.422;2023-12-22T04:34:42;4.80;99.90
33476;DHT22;19814;48.224;11.422;2023-12-22T04:37:08;4.80;99.90
33476;DHT22;19814;48.224;11.422;2023-12-22T04:39:34;4.90;99.90
33476;DHT22;19814;48.224;11.422;2023-12-22T04:41:59;4.90;99.90
33476;DHT22;19814;48.224;11.422;2023-12-22T04:44:25;4.90;99.90
33476;DHT22;19814;48.224;11.422;2023-12-22T04:46:50;5.00;99.90
33476;DHT22;19814;48.224;11.422;2023-12-22T04:49:16;5.00;99.90
33476;DHT22;19814;48.224;11.422;2023-12-22T04:51:42;5.00;99.90
33476;DHT22;19814;48.224;11.422;2023-12-22T04:54:07;5.10;99.90
33476;DHT22;19814;48.224;11.422;2023-12-22T04:56:33;5.10;99.90
33476;DHT22;19814;48.224;11.422;2023-12-22T04:58:58;5.20;99.90
33476;DHT22;19814;48.224;11.422;2023-12-22T05:01:24;5.20;99.90
33476;DHT22;19814;48.224;11.422;2023-12-22T05:03:49;5.20;99.90
33476;DHT22;19814;48.224;11.422;2023-12-22T05:06:14;5.20;99.90
33476;DHT22;19814;48.224;11.422;2023-12-22T05:08:40;5.30;99.90
33476;DHT22;19814;48.224;11.422;2023-12-22T05:11:06;5.40;99.90
33476;DHT22;19814;48.224;11.422;2023-12-22T05:13:31;5.50;99.90
33476;DHT22;19814;48.224;11.422;2023-12-22T05:15:56;5.50;99.90
33476;DHT22;19814;48.224;11.422;2023-12-22T05:18:22;5.60;99.90
33476;DHT22;19814;48.224;11.422;2023-12-22T05:20:48;5.60;99.90
33476;DHT22;19814;48.224;11.422;2023-12-22T05:23:13;5.60;99.90
33476;DHT22;19814;48.224;11.422;2023-12-22T05:25:39;5.70;99.90
33476;DHT22;19814;48.224;11.422;2023-12-22T05:28:05;5.70;99.90
33476;DHT22;19814;48.224;11.422;2023-12-22T05:30:31;5.70;99.90
33476;DHT22;19814;48.224;11.422;2023-12-22T05:32:56;5.70;99.90
33476;DHT22;19814;48.224;11.422;2023-12-22T05:35:22;5.80;99.90
33476;DHT22;19814;48.224;11.422;2023-12-22T05:37:48;5.80;99.90
33476;DHT22;19814;48.224;11.422;2023-12-22T05:40:13;5.90;99.90
33476;DHT22;19814;48.224;11.422;2023-12-22T05:42:39;5.80;99.90
33476;DHT22;19814;48.224;11.422;2023-12-22T05:45:04;5.80;99.90
33476;DHT22;19814;48.224;11.422;2023-12-22T05:47:31;5.70;99.90
33476;DHT22;19814;48.224;11.422;2023-12-22T05:49:57;5.60;99.90
33476;DHT22;19814;48.224;11.422;2023-12-22T05:52:22;5.40;99.90
33476;DHT22;19814;48.224;11.422;2023-12-22T05:54:48;5.40;99.90
33476;DHT22;19814;48.224;11.422;2023-12-22T05:57:13;5.20;99.90
33476;DHT22;19814;48.224;11.422;2023-12-22T05:59:39;5.20;99.90
33476;DHT22;19814;48.224;11.422;2023-12-22T06:02:04;5.10;99.90
33476;DHT22;19814;48.224;11.422;2023-12-22T06:04:30;5.00;99.90
33476;DHT22;19814;48.224;11.422;2023-12-22T06:06:56;4.80;99.90
33476;DHT22;19814;48.224;11.422;2023-12-22T06:09:21;4.80;99.90
33476;DHT22;19814;48.224;11.422;2023-12-22T06:11:47;4.70;99.90
33476;DHT22;19814;48.224;11.422;2023-12-22T06:14:13;4.70;99.90
33476;DHT22;19814;48.224;11.422;2023-12-22T06:16:39;4.70;99.90
33476;DHT22;19814;48.224;11.422;2023-12-22T06:19:05;4.60;99.90
33476;DHT22;19814;48.224;11.422;2023-12-22T06:21:30;4.60;99.90
33476;DHT22;19814;48.224;11.422;2023-12-22T06:23:55;4.60;99.90
33476;DHT22;19814;48.224;11.422;2023-12-22T06:26:21;4.60;99.90
33476;DHT22;19814;48.224;11.422;2023-12-22T06:28:46;4.70;99.90
33476;DHT22;19814;48.224;11.422;2023-12-22T06:31:18;4.70;99.90
33476;DHT22;19814;48.224;11.422;2023-12-22T06:33:44;4.70;99.90
33476;DHT22;19814;48.224;11.422;2023-12-22T06:38:44;4.80;99.90
33476;DHT22;19814;48.224;11.422;2023-12-22T06:41:22;4.80;99.90
33476;DHT22;19814;48.224;11.422;2023-12-22T06:43:48;4.80;99.90
33476;DHT22;19814;48.224;11.422;2023-12-22T06:46:15;4.90;99.90
33476;DHT22;19814;48.224;11.422;2023-12-22T06:48:41;4.90;99.90
33476;DHT22;19814;48.224;11.422;2023-12-22T06:51:06;5.00;99.90
33476;DHT22;19814;48.224;11.422;2023-12-22T06:53:32;5.10;99.90
33476;DHT22;19814;48.224;11.422;2023-12-22T06:55:57;5.20;99.90
33476;DHT22;19814;48.224;11.422;2023-12-22T06:58:22;5.20;99.90
33476;DHT22;19814;48.224;11.422;2023-12-22T07:00:51;5.40;99.90
33476;DHT22;19814;48.224;11.422;2023-12-22T07:03:16;5.40;99.90
33476;DHT22;19814;48.224;11.422;2023-12-22T07:05:42;5.50;99.90
33476;DHT22;19814;48.224;11.422;2023-12-22T07:08:08;5.50;99.90
33476;DHT22;19814;48.224;11.422;2023-12-22T07:10:33;5.50;99.90
33476;DHT22;19814;48.224;11.422;2023-12-22T07:12:59;5.40;99.90
33476;DHT22;19814;48.224;11.422;2023-12-22T07:15:24;5.20;99.90
33476;DHT22;19814;48.224;11.422;2023-12-22T07:17:50;4.90;99.90
33476;DHT22;19814;48.224;11.422;2023-12-22T07:20:15;4.70;99.90
33476;DHT22;19814;48.224;11.422;2023-12-22T07:22:43;4.70;99.90
33476;DHT22;19814;48.224;11.422;2023-12-22T07:25:09;4.70;99.90
33476;DHT22;19814;48.224;11.422;2023-12-22T07:27:34;4.80;99.90
33476;DHT22;19814;48.224;11.422;2023-12-22T07:30:00;4.80;99.90
33476;DHT22;19814;48.224;11.422;2023-12-22T07:32:25;4.80;99.90
33476;DHT22;19814;48.224;11.422;2023-12-22T07:34:51;4.90;99.90
33476;DHT22;19814;48.224;11.422;2023-12-22T07:37:16;4.90;99.90
33476;DHT22;19814;48.224;11.422;2023-12-22T07:39:42;4.90;99.90
33476;DHT22;19814;48.224;11.422;2023-12-22T07:42:10;4.90;99.90
33476;DHT22;19814;48.224;11.422;2023-12-22T07:44:35;4.90;99.90
33476;DHT22;19814;48.224;11.422;2023-12-22T07:47:01;5.00;99.90
33476;DHT22;19814;48.224;11.422;2023-12-22T07:49:27;5.00;99.90
33476;DHT22;19814;48.224;11.422;2023-12-22T07:51:52;5.10;99.90
33476;DHT22;19814;48.224;11.422;2023-12-22T07:54:18;5.20;99.90
33476;DHT22;19814;48.224;11.422;2023-12-22T07:56:43;5.20;99.90
33476;DHT22;19814;48.224;11.422;2023-12-22T07:59:09;5.30;99.90
33476;DHT22;19814;48.224;11.422;2023-12-22T08:01:34;4.90;99.90
33476;DHT22;19814;48.224;11.422;2023-12-22T08:04:00;4.30;99.90
33476;DHT22;19814;48.224;11.422;2023-12-22T08:06:25;4.20;99.90
33476;DHT22;19814;48.224;11.422;2023-12-22T08:08:51;4.40;99.90
33476;DHT22;19814;48.224;11.422;2023-12-22T08:11:16;4.50;99.90
33476;DHT22;19814;48.224;11.422;2023-12-22T08:13:41;4.50;99.90
33476;DHT22;19814;48.224;11.422;2023-12-22T08:16:07;4.60;99.90
33476;DHT22;19814;48.224;11.422;2023-12-22T08:18:32;4.60;99.90
33476;DHT22;19814;48.224;11.422;2023-12-22T08:20:58;4.70;99.90
33476;DHT22;19814;48.224;11.422;2023-12-22T08:23:23;4.80;99.90
33476;DHT22;19814;48.224;11.422;2023-12-22T08:25:49;4.90;99.90
33476;DHT22;19814;48.224;11.422;2023-12-22T08:28:14;4.90;99.90
33476;DHT22;19814;48.224;11.422;2023-12-22T08:30:40;5.00;99.90
33476;DHT22;19814;48.224;11.422;2023-12-22T08:33:05;5.00;99.90
33476;DHT22;19814;48.224;11.422;2023-12-22T08:35:31;5.00;99.90
33476;DHT22;19814;48.224;11.422;2023-12-22T08:37:56;5.00;99.90
33476;DHT22;19814;48.224;11.422;2023-12-22T08:40:22;5.10;99.90
33476;DHT22;19814;48.224;11.422;2023-12-22T08:42:51;5.10;99.90
33476;DHT22;19814;48.224;11.422;2023-12-22T08:45:20;5.20;99.90
33476;DHT22;19814;48.224;11.422;2023-12-22T08:47:45;5.30;99.90
33476;DHT22;19814;48.224;11.422;2023-12-22T08:50:11;5.40;99.90
33476;DHT22;19814;48.224;11.422;2023-12-22T08:52:38;5.50;99.90
33476;DHT22;19814;48.224;11.422;2023-12-22T08:55:04;5.50;99.90
33476;DHT22;19814;48.224;11.422;2023-12-22T08:57:30;5.70;99.90
33476;DHT22;19814;48.224;11.422;2023-12-22T08:59:57;5.80;99.90
33476;DHT22;19814;48.224;11.422;2023-12-22T09:02:22;5.90;99.90
33476;DHT22;19814;48.224;11.422;2023-12-22T09:04:48;6.00;99.90
33476;DHT22;19814;48.224;11.422;2023-12-22T09:07:13;6.40;99.90
33476;DHT22;19814;48.224;11.422;2023-12-22T09:09:39;6.80;99.90
33476;DHT22;19814;48.224;11.422;2023-12-22T09:12:05;7.10;99.90
33476;DHT22;19814;48.224;11.422;2023-12-22T09:14:31;7.20;99.90
33476;DHT22;19814;48.224;11.422;2023-12-22T09:16:56;7.00;99.90
33476;DHT22;19814;48.224;11.422;2023-12-22T09:19:22;7.10;99.90
33476;DHT22;19814;48.224;11.422;2023-12-22T09:21:47;7.20;99.90
33476;DHT22;19814;48.224;11.422;2023-12-22T09:24:12;7.10;99.90
33476;DHT22;19814;48.224;11.422;2023-12-22T09:26:38;6.90;99.90
33476;DHT22;19814;48.224;11.422;2023-12-22T09:29:03;6.80;99.90
33476;DHT22;19814;48.224;11.422;2023-12-22T09:31:29;6.60;99.90
33476;DHT22;19814;48.224;11.422;2023-12-22T09:33:54;6.60;99.90
33476;DHT22;19814;48.224;11.422;2023-12-22T09:36:20;6.60;99.90
33476;DHT22;19814;48.224;11.422;2023-12-22T09:38:46;6.60;99.90
33476;DHT22;19814;48.224;11.422;2023-12-22T09:41:11;6.60;99.90
33476;DHT22;19814;48.224;11.422;2023-12-22T09:43:37;6.50;99.90
33476;DHT22;19814;48.224;11.422;2023-12-22T09:46:04;6.50;99.90
33476;DHT22;19814;48.224;11.422;2023-12-22T09:48:30;6.40;99.90
33476;DHT22;19814;48.224;11.422;2023-12-22T09:50:56;6.40;99.90
33476;DHT22;19814;48.224;11.422;2023-12-22T09:53:23;6.20;99.90
33476;DHT22;19814;48.224;11.422;2023-12-22T09:55:49;6.10;99.90
33476;DHT22;19814;48.224;11.422;2023-12-22T09:58:15;6.10;99.90
33476;DHT22;19814;48.224;11.422;2023-12-22T10:00:42;5.90;99.90
33476;DHT22;19814;48.224;11.422;2023-12-22T10:03:07;5.90;99.90
33476;DHT22;19814;48.224;11.422;2023-12-22T10:05:34;5.70;99.90
33476;DHT22;19814;48.224;11.422;2023-12-22T10:08:00;5.60;99.90
33476;DHT22;19814;48.224;11.422;2023-12-22T10:10:27;5.50;99.90
33476;DHT22;19814;48.224;11.422;2023-12-22T10:12:54;5.40;99.90
33476;DHT22;19814;48.224;11.422;2023-12-22T10:15:20;5.20;99.90
33476;DHT22;19814;48.224;11.422;2023-12-22T10:17:52;5.10;99.90
33476;DHT22;19814;48.224;11.422;2023-12-22T10:20:17;4.90;99.90
33476;DHT22;19814;48.224;11.422;2023-12-22T10:22:45;4.90;99.90
33476;DHT22;19814;48.224;11.422;2023-12-22T10:25:14;4.90;99.90
33476;DHT22;19814;48.224;11.422;2023-12-22T10:27:41;4.90;99.90
33476;DHT22;19814;48.224;11.422;2023-12-22T10:30:07;4.90;99.90
33476;DHT22;19814;48.224;11.422;2023-12-22T10:32:32;4.90;99.90
33476;DHT22;19814;48.224;11.422;2023-12-22T10:34:58;4.90;99.90
33476;DHT22;19814;48.224;11.422;2023-12-22T10:37:23;4.90;99.90
33476;DHT22;19814;48.224;11.422;2023-12-22T10:39:52;4.80;99.90
33476;DHT22;19814;48.224;11.422;2023-12-22T10:42:18;4.80;99.90
33476;DHT22;19814;48.224;11.422;2023-12-22T10:44:44;4.80;99.90
33476;DHT22;19814;48.224;11.422;2023-12-22T10:47:10;4.80;99.90
33476;DHT22;19814;48.224;11.422;2023-12-22T10:49:35;4.80;99.90
33476;DHT22;19814;48.224;11.422;2023-12-22T10:52:01;4.80;99.90
33476;DHT22;19814;48.224;11.422;2023-12-22T10:54:27;4.80;99.90
33476;DHT22;19814;48.224;11.422;2023-12-22T10:56:54;4.80;99.90
33476;DHT22;19814;48.224;11.422;2023-12-22T10:59:20;4.70;99.90
33476;DHT22;19814;48.224;11.422;2023-12-22T11:01:47;4.80;99.90
33476;DHT22;19814;48.224;11.422;2023-12-22T11:04:13;4.80;99.90
33476;DHT22;19814;48.224;11.422;2023-12-22T11:06:41;4.90;99.90
33476;DHT22;19814;48.224;11.422;2023-12-22T11:09:08;5.00;99.90
33476;DHT22;19814;48.224;11.422;2023-12-22T11:11:37;5.10;99.90
33476;DHT22;19814;48.224;11.422;2023-12-22T11:14:03;5.30;99.90
33476;DHT22;19814;48.224;11.422;2023-12-22T11:16:29;5.40;99.90
33476;DHT22;19814;48.224;11.422;2023-12-22T11:18:55;5.50;99.90
33476;DHT22;19814;48.224;11.422;2023-12-22T11:21:21;5.60;99.90
33476;DHT22;19814;48.224;11.422;2023-12-22T11:23:47;5.70;99.90
33476;DHT22;19814;48.224;11.422;2023-12-22T11:26:12;5.80;99.90
33476;DHT22;19814;48.224;11.422;2023-12-22T11:28:39;5.80;99.90
33476;DHT22;19814;48.224;11.422;2023-12-22T11:31:06;6.00;99.90
33476;DHT22;19814;48.224;11.422;2023-12-22T11:33:32;6.00;99.90
33476;DHT22;19814;48.224;11.422;2023-12-22T11:36:00;6.10;99.90
33476;DHT22;19814;48.224;11.422;2023-12-22T11:38:26;6.10;99.90
33476;DHT22;19814;48.224;11.422;2023-12-22T11:40:51;6.10;99.90
33476;DHT22;19814;48.224;11.422;2023-12-22T11:43:18;6.20;99.90
33476;DHT22;19814;48.224;11.422;2023-12-22T11:45:44;6.30;99.90
33476;DHT22;19814;48.224;11.422;2023-12-22T11:48:09;6.30;99.90
33476;DHT22;19814;48.224;11.422;2023-12-22T11:50:35;6.30;99.90
33476;DHT22;19814;48.224;11.422;2023-12-22T11:55:57;6.10;99.90
33476;DHT22;19814;48.224;11.422;2023-12-22T11:58:32;6.00;99.90
33476;DHT22;19814;48.224;11.422;2023-12-22T12:00:59;6.00;99.90
33476;DHT22;19814;48.224;11.422;2023-12-22T12:03:26;5.90;99.90
33476;DHT22;19814;48.224;11.422;2023-12-22T12:08:36;5.90;99.90
33476;DHT22;19814;48.224;11.422;2023-12-22T12:11:02;5.90;99.90
33476;DHT22;19814;48.224;11.422;2023-12-22T12:13:28;5.90;99.90
33476;DHT22;19814;48.224;11.422;2023-12-22T12:15:56;6.00;99.90
33476;DHT22;19814;48.224;11.422;2023-12-22T12:18:22;6.00;99.90
33476;DHT22;19814;48.224;11.422;2023-12-22T12:20:48;6.00;99.90
33476;DHT22;19814;48.224;11.422;2023-12-22T12:23:17;6.00;99.90
33476;DHT22;19814;48.224;11.422;2023-12-22T12:25:43;6.00;99.90
33476;DHT22;19814;48.224;11.422;2023-12-22T12:28:08;6.10;99.90
33476;DHT22;19814;48.224;11.422;2023-12-22T12:30:35;6.00;99.90
33476;DHT22;19814;48.224;11.422;2023-12-22T12:33:10;6.10;99.90
33476;DHT22;19814;48.224;11.422;2023-12-22T12:35:37;6.10;99.90
33476;DHT22;19814;48.224;11.422;2023-12-22T12:38:03;6.00;99.90
33476;DHT22;19814;48.224;11.422;2023-12-22T12:40:28;6.10;99.90
33476;DHT22;19814;48.224;11.422;2023-12-22T12:42:59;6.00;99.90
33476;DHT22;19814;48.224;11.422;2023-12-22T12:45:25;6.10;99.90
33476;DHT22;19814;48.224;11.422;2023-12-22T12:48:00;6.10;99.90
33476;DHT22;19814;48.224;11.422;2023-12-22T12:50:28;6.10;99.90
33476;DHT22;19814;48.224;11.422;2023-12-22T12:52:55;6.10;99.90
33476;DHT22;19814;48.224;11.422;2023-12-22T12:55:21;6.10;99.90
33476;DHT22;19814;48.224;11.422;2023-12-22T12:57:50;6.20;99.90
33476;DHT22;19814;48.224;11.422;2023-12-22T13:00:17;6.20;99.90
33476;DHT22;19814;48.224;11.422;2023-12-22T13:02:48;6.20;99.90
33476;DHT22;19814;48.224;11.422;2023-12-22T13:05:23;6.20;99.90
33476;DHT22;19814;48.224;11.422;2023-12-22T13:07:49;6.20;99.90
33476;DHT22;19814;48.224;11.422;2023-12-22T13:10:21;6.20;99.90
33476;DHT22;19814;48.224;11.422;2023-12-22T13:12:47;6.10;99.90
33476;DHT22;19814;48.224;11.422;2023-12-22T13:15:12;6.20;99.90
33476;DHT22;19814;48.224;11.422;2023-12-22T13:17:38;6.10;99.90
33476;DHT22;19814;48.224;11.422;2023-12-22T13:20:03;6.10;99.90
33476;DHT22;19814;48.224;11.422;2023-12-22T13:22:29;6.10;99.90
33476;DHT22;19814;48.224;11.422;2023-12-22T13:24:55;6.10;99.90
33476;DHT22;19814;48.224;11.422;2023-12-22T13:27:21;6.10;99.90
33476;DHT22;19814;48.224;11.422;2023-12-22T13:29:47;6.10;99.90
33476;DHT22;19814;48.224;11.422;2023-12-22T13:32:14;6.00;99.90
33476;DHT22;19814;48.224;11.422;2023-12-22T13:34:45;6.00;99.90
33476;DHT22;19814;48.224;11.422;2023-12-22T13:37:11;6.00;99.90
33476;DHT22;19814;48.224;11.422;2023-12-22T13:39:36;6.00;99.90
33476;DHT22;19814;48.224;11.422;2023-12-22T13:42:02;6.00;99.90
33476;DHT22;19814;48.224;11.422;2023-12-22T13:44:28;6.00;99.90
33476;DHT22;19814;48.224;11.422;2023-12-22T13:46:53;6.00;99.90
33476;DHT22;19814;48.224;11.422;2023-12-22T13:49:18;6.10;99.90
33476;DHT22;19814;48.224;11.422;2023-12-22T13:51:44;6.10;99.90
33476;DHT22;19814;48.224;11.422;2023-12-22T13:54:10;6.10;99.90
33476;DHT22;19814;48.224;11.422;2023-12-22T13:56:36;6.10;99.90
33476;DHT22;19814;48.224;11.422;2023-12-22T13:59:02;6.10;99.90
33476;DHT22;19814;48.224;11.422;2023-12-22T14:01:28;6.20;99.90
33476;DHT22;19814;48.224;11.422;2023-12-22T14:03:53;6.20;99.90
33476;DHT22;19814;48.224;11.422;2023-12-22T14:06:19;6.30;99.90
33476;DHT22;19814;48.224;11.422;2023-12-22T14:08:44;6.30;99.90
33476;DHT22;19814;48.224;11.422;2023-12-22T14:11:10;6.30;99.90
33476;DHT22;19814;48.224;11.422;2023-12-22T14:13:36;6.30;99.90
33476;DHT22;19814;48.224;11.422;2023-12-22T14:16:06;6.30;99.90
33476;DHT22;19814;48.224;11.422;2023-12-22T14:18:32;6.40;99.90
33476;DHT22;19814;48.224;11.422;2023-12-22T14:20:57;6.40;99.90
33476;DHT22;19814;48.224;11.422;2023-12-22T14:23:24;6.50;99.90
33476;DHT22;19814;48.224;11.422;2023-12-22T14:25:49;6.50;99.90
33476;DHT22;19814;48.224;11.422;2023-12-22T14:28:14;6.60;99.90
33476;DHT22;19814;48.224;11.422;2023-12-22T14:30:40;6.60;99.90
33476;DHT22;19814;48.224;11.422;2023-12-22T14:33:05;6.60;99.90
33476;DHT22;19814;48.224;11.422;2023-12-22T14:35:31;6.70;99.90
33476;DHT22;19814;48.224;11.422;2023-12-22T14:37:56;6.70;99.90
33476;DHT22;19814;48.224;11.422;2023-12-22T14:40:22;6.70;99.90
33476;DHT22;19814;48.224;11.422;2023-12-22T14:42:47;6.70;99.90
33476;DHT22;19814;48.224;11.422;2023-12-22T14:45:13;6.70;99.90
33476;DHT22;19814;48.224;11.422;2023-12-22T14:47:38;6.70;99.90
33476;DHT22;19814;48.224;11.422;2023-12-22T14:50:04;6.70;99.90
33476;DHT22;19814;48.224;11.422;2023-12-22T14:52:30;6.70;99.90
33476;DHT22;19814;48.224;11.422;2023-12-22T14:54:57;6.70;99.90
33476;DHT22;19814;48.224;11.422;2023-12-22T14:57:23;6.70;99.90
33476;DHT22;19814;48.224;11.422;2023-12-22T14:59:48;6.70;99.90
33476;DHT22;19814;48.224;11.422;2023-12-22T15:02:14;6.60;99.90
33476;DHT22;19814;48.224;11.422;2023-12-22T15:04:39;6.60;99.90
33476;DHT22;19814;48.224;11.422;2023-12-22T15:07:04;6.60;99.90
33476;DHT22;19814;48.224;11.422;2023-12-22T15:09:30;6.60;99.90
33476;DHT22;19814;48.224;11.422;2023-12-22T15:11:55;6.60;99.90
33476;DHT22;19814;48.224;11.422;2023-12-22T15:14:21;6.60;99.90
33476;DHT22;19814;48.224;11.422;2023-12-22T15:16:47;6.70;99.90
33476;DHT22;19814;48.224;11.422;2023-12-22T15:19:13;6.60;99.90
33476;DHT22;19814;48.224;11.422;2023-12-22T15:21:39;6.60;99.90
33476;DHT22;19814;48.224;11.422;2023-12-22T15:24:07;6.60;99.90
33476;DHT22;19814;48.224;11.422;2023-12-22T15:26:33;6.60;99.90
33476;DHT22;19814;48.224;11.422;2023-12-22T15:29:00;6.70;99.90